Wetterdaten Neuhaus/Waldnaab

^

Wetter Neuhaus/WN - aktuelle & historische Daten
 
tägl. Zusammenfassung für den 15. Februar 2019
« minus 1 Tag
plus 1 Tag »
tägl. wöchentl. monatl. jährl.
  Aktuell: Höchstwert: Tiefstwert: Durchschnitt:
Temperatur: -0.8 °C 15.0 °C -5.8 °C 1.7 °C
Taupunkt: -0.9 °C 6.8 °C -5.9 °C -0.5 °C
Luftfeuchte: 99% 99% 54% 88%
Windgeschwindigkeit: 0.0km/h 0.0km/h 0.0km/h 0km/h
Windböe: 0.0km/h 0.0km/h - -
Windruhig - - Nord
Druck: 1032.1 hPa 1035.4 hPa 1031.7 hPa -
Niederschlag: 0.3 mm      
Historical Graphs
 
 














tabellarische Daten für den 15. Februar 2019
Zeit Temperatur Taupunkt Luftdruck Wind Windgeschwindigkeit Windböe Luftfeuchte Regen (pro h) Solar Bedingungen
00:04 -4.4 °C -4.5 °C 1035.4 hPa ruhig     99% 0.0 mm 0.00 W/m2
00:09 -4.4 °C -4.5 °C 1035.4 hPa ruhig     99% 0.0 mm 0.00 W/m2
00:14 -4.4 °C -4.5 °C 1035.4 hPa ruhig     99% 0.0 mm 0.00 W/m2
00:19 -4.4 °C -4.5 °C 1035.4 hPa ruhig     99% 0.0 mm 0.00 W/m2
00:24 -4.4 °C -4.5 °C 1035.4 hPa ruhig     99% 0.0 mm 0.00 W/m2
00:29 -4.4 °C -4.5 °C 1035.4 hPa ruhig     99% 0.0 mm 0.00 W/m2
00:34 -4.4 °C -4.5 °C 1035.4 hPa ruhig     99% 0.0 mm 0.00 W/m2
00:39 -4.4 °C -4.5 °C 1035.4 hPa ruhig     99% 0.0 mm 0.00 W/m2
00:44 -4.4 °C -4.5 °C 1035.4 hPa ruhig     99% 0.0 mm 0.00 W/m2
00:49 -4.5 °C -4.6 °C 1035.4 hPa ruhig     99% 0.0 mm 0.00 W/m2
00:54 -4.5 °C -4.6 °C 1035.4 hPa ruhig     99% 0.0 mm 0.00 W/m2
00:59 -4.5 °C -4.6 °C 1035.4 hPa ruhig     99% 0.0 mm 0.00 W/m2
01:04 -4.5 °C -4.6 °C 1035.1 hPa ruhig     99% 0.0 mm 0.00 W/m2
01:09 -4.6 °C -4.7 °C 1035.1 hPa ruhig     99% 0.0 mm 0.00 W/m2
01:14 -4.6 °C -4.7 °C 1035.4 hPa ruhig     99% 0.0 mm 0.00 W/m2
01:19 -4.7 °C -4.8 °C 1035.1 hPa ruhig     99% 0.0 mm 0.00 W/m2
01:24 -4.7 °C -4.8 °C 1035.1 hPa ruhig     99% 0.0 mm 0.00 W/m2
01:29 -4.8 °C -4.9 °C 1035.1 hPa ruhig     99% 0.0 mm 0.00 W/m2
01:34 -4.8 °C -4.9 °C 1035.4 hPa ruhig     99% 0.0 mm 0.00 W/m2
01:39 -4.9 °C -5.0 °C 1035.1 hPa ruhig     99% 0.0 mm 0.00 W/m2
01:44 -4.9 °C -5.0 °C 1035.1 hPa ruhig     99% 0.0 mm 0.00 W/m2
01:49 -5.0 °C -5.1 °C 1035.1 hPa ruhig     99% 0.0 mm 0.00 W/m2
01:54 -5.0 °C -5.1 °C 1035.1 hPa ruhig     99% 0.0 mm 0.00 W/m2
01:59 -5.1 °C -5.2 °C 1035.4 hPa ruhig     99% 0.0 mm 0.00 W/m2
02:04 -5.1 °C -5.2 °C 1035.4 hPa ruhig     99% 0.0 mm 0.00 W/m2
02:09 -5.2 °C -5.3 °C 1035.4 hPa ruhig     99% 0.0 mm 0.00 W/m2
02:14 -5.2 °C -5.3 °C 1035.4 hPa ruhig     99% 0.0 mm 0.00 W/m2
02:19 -5.2 °C -5.3 °C 1035.4 hPa ruhig     99% 0.0 mm 0.00 W/m2
02:24 -5.2 °C -5.3 °C 1035.4 hPa ruhig     99% 0.0 mm 0.00 W/m2
02:29 -5.2 °C -5.3 °C 1035.4 hPa ruhig     99% 0.0 mm 0.00 W/m2
02:34 -5.3 °C -5.4 °C 1035.4 hPa ruhig     99% 0.0 mm 0.00 W/m2
02:39 -5.3 °C -5.4 °C 1035.1 hPa ruhig     99% 0.0 mm 0.00 W/m2
02:44 -5.3 °C -5.4 °C 1035.1 hPa ruhig     99% 0.0 mm 0.00 W/m2
02:49 -5.3 °C -5.4 °C 1035.1 hPa ruhig     99% 0.0 mm 0.00 W/m2
02:54 -5.3 °C -5.4 °C 1035.1 hPa ruhig     99% 0.0 mm 0.00 W/m2
02:59 -5.3 °C -5.4 °C 1035.1 hPa ruhig     99% 0.0 mm 0.00 W/m2
03:04 -5.2 °C -5.3 °C 1035.1 hPa ruhig     99% 0.0 mm 0.00 W/m2
03:09 -5.2 °C -5.3 °C 1035.1 hPa ruhig     99% 0.0 mm 0.00 W/m2
03:14 -5.2 °C -5.3 °C 1035.1 hPa ruhig     99% 0.0 mm 0.00 W/m2
03:19 -5.2 °C -5.3 °C 1035.1 hPa ruhig     99% 0.0 mm 0.00 W/m2
03:24 -5.2 °C -5.3 °C 1035.1 hPa ruhig     99% 0.0 mm 0.00 W/m2
03:29 -5.2 °C -5.3 °C 1034.8 hPa ruhig     99% 0.0 mm 0.00 W/m2
03:34 -5.2 °C -5.3 °C 1035.1 hPa ruhig     99% 0.0 mm 0.00 W/m2
03:39 -5.2 °C -5.3 °C 1035.1 hPa ruhig     99% 0.0 mm 0.00 W/m2
03:44 -5.2 °C -5.3 °C 1035.1 hPa ruhig     99% 0.0 mm 0.00 W/m2
03:49 -5.2 °C -5.3 °C 1034.8 hPa ruhig     99% 0.0 mm 0.00 W/m2
03:54 -5.3 °C -5.4 °C 1034.8 hPa ruhig     99% 0.0 mm 0.00 W/m2
03:59 -5.3 °C -5.4 °C 1034.8 hPa ruhig     99% 0.0 mm 0.00 W/m2
04:04 -5.3 °C -5.4 °C 1034.8 hPa ruhig     99% 0.0 mm 0.00 W/m2
04:09 -5.3 °C -5.4 °C 1034.8 hPa ruhig     99% 0.0 mm 0.00 W/m2
04:14 -5.3 °C -5.4 °C 1034.8 hPa ruhig     99% 0.0 mm 0.00 W/m2
04:19 -5.3 °C -5.4 °C 1034.8 hPa ruhig     99% 0.0 mm 0.00 W/m2
04:24 -5.3 °C -5.4 °C 1034.4 hPa ruhig     99% 0.0 mm 0.00 W/m2
04:29 -5.4 °C -5.5 °C 1034.8 hPa ruhig     99% 0.0 mm 0.00 W/m2
04:34 -5.4 °C -5.5 °C 1034.4 hPa ruhig     99% 0.0 mm 0.00 W/m2
04:39 -5.4 °C -5.5 °C 1034.4 hPa ruhig     99% 0.0 mm 0.00 W/m2
04:44 -5.4 °C -5.5 °C 1034.8 hPa ruhig     99% 0.0 mm 0.00 W/m2
04:49 -5.5 °C -5.6 °C 1034.4 hPa ruhig     99% 0.0 mm 0.00 W/m2
04:54 -5.5 °C -5.6 °C 1034.4 hPa ruhig     99% 0.0 mm 0.00 W/m2
04:59 -5.5 °C -5.6 °C 1034.8 hPa ruhig     99% 0.0 mm 0.00 W/m2
05:04 -5.4 °C -5.5 °C 1034.4 hPa ruhig     99% 0.0 mm 0.00 W/m2
05:09 -5.5 °C -5.6 °C 1034.4 hPa ruhig     99% 0.0 mm 0.00 W/m2
05:14 -5.5 °C -5.6 °C 1034.8 hPa ruhig     99% 0.0 mm 0.00 W/m2
05:19 -5.6 °C -5.7 °C 1034.4 hPa ruhig     99% 0.0 mm 0.00 W/m2
05:24 -5.6 °C -5.7 °C 1034.8 hPa ruhig     99% 0.0 mm 0.00 W/m2
05:29 -5.6 °C -5.7 °C 1034.4 hPa ruhig     99% 0.0 mm 0.00 W/m2
05:34 -5.6 °C -5.7 °C 1034.4 hPa ruhig     99% 0.0 mm 0.00 W/m2
05:39 -5.5 °C -5.6 °C 1034.8 hPa ruhig     99% 0.0 mm 0.00 W/m2
05:44 -5.3 °C -5.4 °C 1034.4 hPa ruhig     99% 0.0 mm 0.00 W/m2
05:49 -5.2 °C -5.3 °C 1034.8 hPa ruhig     99% 0.0 mm 0.00 W/m2
05:54 -5.2 °C -5.3 °C 1034.4 hPa ruhig     99% 0.0 mm 0.00 W/m2
05:59 -5.1 °C -5.2 °C 1034.4 hPa ruhig     99% 0.0 mm 0.00 W/m2
06:04 -4.9 °C -5.0 °C 1034.4 hPa ruhig     99% 0.0 mm 0.00 W/m2
06:09 -4.8 °C -4.9 °C 1034.8 hPa ruhig     99% 0.0 mm 0.00 W/m2
06:14 -4.7 °C -4.8 °C 1034.4 hPa ruhig     99% 0.0 mm 0.00 W/m2
06:19 -4.7 °C -4.8 °C 1034.4 hPa ruhig     99% 0.0 mm 0.00 W/m2
06:24 -4.8 °C -4.9 °C 1034.4 hPa ruhig     99% 0.0 mm 0.00 W/m2
06:29 -4.8 °C -4.9 °C 1034.8 hPa ruhig     99% 0.0 mm 0.00 W/m2
06:34 -4.9 °C -5.0 °C 1034.4 hPa ruhig     99% 0.0 mm 0.00 W/m2
06:39 -4.9 °C -5.0 °C 1034.8 hPa ruhig     99% 0.0 mm 0.00 W/m2
06:44 -5.0 °C -5.1 °C 1034.8 hPa ruhig     99% 0.0 mm 0.00 W/m2
06:49 -5.0 °C -5.1 °C 1034.8 hPa ruhig     99% 0.0 mm 0.00 W/m2
06:54 -5.1 °C -5.2 °C 1034.8 hPa ruhig     99% 0.0 mm 0.00 W/m2
06:59 -5.2 °C -5.3 °C 1035.1 hPa ruhig     99% 0.0 mm 0.00 W/m2
07:04 -5.3 °C -5.4 °C 1034.8 hPa ruhig     99% 0.0 mm 0.00 W/m2
07:09 -5.5 °C -5.6 °C 1035.1 hPa ruhig     99% 0.0 mm 0.00 W/m2
07:14 -5.6 °C -5.7 °C 1034.8 hPa ruhig     99% 0.0 mm 0.00 W/m2
07:19 -5.6 °C -5.7 °C 1034.8 hPa ruhig     99% 0.0 mm 0.00 W/m2
07:24 -5.7 °C -5.8 °C 1035.1 hPa ruhig     99% 0.0 mm 0.48 W/m2
07:29 -5.7 °C -5.8 °C 1034.8 hPa ruhig     99% 0.0 mm 2.26 W/m2
07:34 -5.8 °C -5.9 °C 1035.1 hPa ruhig     99% 0.0 mm 4.39 W/m2
07:39 -5.7 °C -5.8 °C 1034.8 hPa ruhig     99% 0.0 mm 5.67 W/m2
07:44 -5.6 °C -5.7 °C 1035.1 hPa ruhig     99% 0.0 mm 7.55 W/m2
07:49 -5.5 °C -5.6 °C 1035.1 hPa ruhig     99% 0.0 mm 9.34 W/m2
07:54 -5.4 °C -5.5 °C 1035.1 hPa ruhig     99% 0.0 mm 11.06 W/m2
07:59 -5.3 °C -5.4 °C 1035.1 hPa ruhig     99% 0.0 mm 12.58 W/m2
08:04 -5.2 °C -5.3 °C 1035.1 hPa ruhig     99% 0.0 mm 14.06 W/m2
08:09 -5.0 °C -5.1 °C 1035.1 hPa ruhig     99% 0.0 mm 13.63 W/m2
08:14 -4.9 °C -5.0 °C 1035.1 hPa ruhig     99% 0.0 mm 16.38 W/m2
08:19 -4.9 °C -5.0 °C 1035.4 hPa ruhig     99% 0.0 mm 17.38 W/m2
08:24 -4.8 °C -4.9 °C 1035.1 hPa ruhig     99% 0.0 mm 18.37 W/m2
08:29 -4.7 °C -4.8 °C 1035.1 hPa ruhig     99% 0.0 mm 19.33 W/m2
08:34 -4.6 °C -4.7 °C 1035.4 hPa ruhig     99% 0.0 mm 20.36 W/m2
08:39 -4.5 °C -4.6 °C 1035.4 hPa ruhig     99% 0.0 mm 21.18 W/m2
08:44 -4.4 °C -4.5 °C 1035.4 hPa ruhig     99% 0.0 mm 21.85 W/m2
08:49 -4.3 °C -4.4 °C 1035.1 hPa ruhig     99% 0.0 mm 22.60 W/m2
08:54 -4.1 °C -4.2 °C 1035.1 hPa ruhig     99% 0.0 mm 23.42 W/m2
08:59 -4.0 °C -4.1 °C 1035.1 hPa ruhig     99% 0.0 mm 24.13 W/m2
09:04 -3.8 °C -3.9 °C 1035.4 hPa ruhig     99% 0.0 mm 24.98 W/m2
09:09 -3.6 °C -3.7 °C 1035.4 hPa ruhig     99% 0.0 mm 25.65 W/m2
09:14 -3.4 °C -3.5 °C 1035.4 hPa ruhig     99% 0.0 mm 26.54 W/m2
09:19 -3.2 °C -3.3 °C 1035.4 hPa ruhig     99% 0.0 mm 27.15 W/m2
09:24 -3.0 °C -3.1 °C 1035.4 hPa ruhig     99% 0.0 mm 27.93 W/m2
09:29 -2.8 °C -2.9 °C 1035.4 hPa ruhig     99% 0.0 mm 28.64 W/m2
09:34 -2.6 °C -2.7 °C 1035.1 hPa ruhig     99% 0.0 mm 29.42 W/m2
09:39 -2.4 °C -2.5 °C 1035.1 hPa ruhig     99% 0.0 mm 30.06 W/m2
09:44 -2.2 °C -2.3 °C 1035.4 hPa ruhig     99% 0.0 mm 31.23 W/m2
09:49 -2.0 °C -2.1 °C 1035.4 hPa ruhig     99% 0.0 mm 40.32 W/m2
09:54 -1.8 °C -1.9 °C 1035.4 hPa ruhig     99% 0.0 mm 37.62 W/m2
09:59 -1.4 °C -1.5 °C 1035.1 hPa ruhig     99% 0.0 mm 40.36 W/m2
10:04 -0.9 °C -1.0 °C 1035.1 hPa ruhig     99% 0.0 mm 44.23 W/m2
10:09 -0.3 °C -0.4 °C 1035.1 hPa ruhig     99% 0.0 mm 48.92 W/m2
10:14 0.5 °C -0.4 °C 1035.4 hPa ruhig     94% 0.0 mm 54.07 W/m2
10:19 1.4 °C 0.1 °C 1035.4 hPa ruhig     91% 0.0 mm 56.84 W/m2
10:24 2.4 °C 0.1 °C 1035.4 hPa ruhig     85% 0.0 mm 49.81 W/m2
10:29 3.4 °C 0.8 °C 1035.4 hPa ruhig     83% 0.0 mm 53.71 W/m2
10:34 4.3 °C 1.2 °C 1035.1 hPa ruhig     80% 1.8 mm 57.83 W/m2
10:39 5.2 °C 1.9 °C 1035.4 hPa ruhig     79% 1.8 mm 62.80 W/m2
10:44 5.7 °C 2.4 °C 1035.4 hPa ruhig     79% 0.0 mm 62.24 W/m2
10:49 6.1 °C 2.9 °C 1035.4 hPa ruhig     80% 0.0 mm 73.39 W/m2
10:54 6.4 °C 3.4 °C 1035.1 hPa ruhig     81% 0.0 mm 78.33 W/m2
10:59 6.7 °C 3.1 °C 1035.1 hPa ruhig     78% 0.0 mm 86.31 W/m2
11:04 7.0 °C 2.7 °C 1035.4 hPa ruhig     74% 0.0 mm 92.94 W/m2
11:09 7.0 °C 3.6 °C 1035.1 hPa ruhig     79% 0.0 mm 99.54 W/m2
11:14 7.2 °C 3.3 °C 1035.1 hPa ruhig     76% 0.0 mm 107.22 W/m2
11:19 7.3 °C 3.9 °C 1035.1 hPa ruhig     79% 0.0 mm 80.09 W/m2
11:24 7.4 °C 4.2 °C 1035.1 hPa ruhig     80% 0.0 mm 57.58 W/m2
11:29 7.2 °C 4.3 °C 1035.1 hPa ruhig     82% 0.0 mm 57.90 W/m2
11:34 7.0 °C 4.0 °C 1035.1 hPa ruhig     81% 0.0 mm 57.97 W/m2
11:39 7.0 °C 4.0 °C 1035.1 hPa ruhig     81% 0.0 mm 58.01 W/m2
11:44 6.9 °C 3.9 °C 1035.1 hPa ruhig     81% 0.0 mm 66.32 W/m2
11:49 6.9 °C 4.2 °C 1034.8 hPa ruhig     83% 0.0 mm 136.89 W/m2
11:54 7.0 °C 3.6 °C 1035.1 hPa ruhig     79% 0.0 mm 176.75 W/m2
11:59 7.1 °C 3.5 °C 1035.1 hPa ruhig     78% 0.0 mm 188.43 W/m2
12:04 7.4 °C 3.3 °C 1035.1 hPa ruhig     75% 0.0 mm 201.81 W/m2
12:09 7.6 °C 3.7 °C 1034.8 hPa ruhig     76% 0.0 mm 215.39 W/m2
12:14 7.9 °C 3.8 °C 1034.8 hPa ruhig     75% 0.0 mm 229.00 W/m2
12:19 8.3 °C 3.8 °C 1034.4 hPa ruhig     73% 0.0 mm 244.59 W/m2
12:24 8.6 °C 4.0 °C 1034.4 hPa ruhig     73% 0.0 mm 259.75 W/m2
12:29 8.9 °C 4.3 °C 1034.4 hPa ruhig     73% 0.0 mm 275.52 W/m2
12:34 9.1 °C 4.5 °C 1034.4 hPa ruhig     73% 0.0 mm 289.91 W/m2
12:39 9.3 °C 4.7 °C 1034.4 hPa ruhig     73% 0.0 mm 302.15 W/m2
12:44 9.4 °C 4.8 °C 1034.4 hPa ruhig     73% 0.0 mm 315.99 W/m2
12:49 9.6 °C 4.8 °C 1034.4 hPa ruhig     72% 0.0 mm 327.50 W/m2
12:54 9.7 °C 5.1 °C 1034.1 hPa ruhig     73% 0.0 mm 336.87 W/m2
12:59 9.8 °C 4.8 °C 1034.1 hPa ruhig     71% 0.0 mm 345.86 W/m2
13:04 9.9 °C 4.9 °C 1034.1 hPa ruhig     71% 0.0 mm 354.51 W/m2
13:09 10.1 °C 4.9 °C 1034.1 hPa ruhig     70% 0.0 mm 360.52 W/m2
13:14 10.4 °C 4.6 °C 1034.1 hPa ruhig     67% 0.0 mm 367.50 W/m2
13:19 10.6 °C 4.7 °C 1033.7 hPa ruhig     67% 0.0 mm 372.21 W/m2
13:24 11.0 °C 4.7 °C 1034.1 hPa ruhig     65% 0.0 mm 375.24 W/m2
13:29 11.3 °C 5.2 °C 1034.1 hPa ruhig     66% 0.0 mm 377.14 W/m2
13:34 11.6 °C 5.3 °C 1034.1 hPa ruhig     65% 0.0 mm 379.71 W/m2
13:39 11.9 °C 5.3 °C 1034.1 hPa ruhig     64% 0.0 mm 381.90 W/m2
13:44 12.1 °C 5.5 °C 1033.7 hPa ruhig     64% 0.0 mm 384.65 W/m2
13:49 12.4 °C 6.2 °C 1033.7 hPa ruhig     66% 0.0 mm 383.07 W/m2
13:54 12.6 °C 5.5 °C 1033.7 hPa ruhig     62% 0.0 mm 386.78 W/m2
13:59 12.8 °C 5.7 °C 1033.4 hPa ruhig     62% 0.0 mm 384.97 W/m2
14:04 13.0 °C 5.7 °C 1033.4 hPa ruhig     61% 0.0 mm 382.86 W/m2
14:09 13.3 °C 5.5 °C 1033.4 hPa ruhig     59% 0.0 mm 384.73 W/m2
14:14 13.6 °C 5.5 °C 1033.4 hPa ruhig     58% 0.0 mm 383.71 W/m2
14:19 13.8 °C 5.9 °C 1033.4 hPa ruhig     59% 0.0 mm 380.38 W/m2
14:24 14.0 °C 5.9 °C 1033.1 hPa ruhig     58% 0.0 mm 376.79 W/m2
14:29 14.3 °C 5.7 °C 1033.1 hPa ruhig     56% 0.0 mm 374.48 W/m2
14:34 14.7 °C 6.3 °C 1033.1 hPa ruhig     57% 0.0 mm 371.86 W/m2
14:39 14.8 °C 6.4 °C 1033.1 hPa ruhig     57% 0.0 mm 368.09 W/m2
14:44 14.8 °C 6.4 °C 1033.1 hPa ruhig     57% 0.0 mm 366.16 W/m2
14:49 14.8 °C 6.6 °C 1032.7 hPa ruhig     58% 0.0 mm 354.36 W/m2
14:54 14.7 °C 6.3 °C 1033.1 hPa ruhig     57% 0.0 mm 352.23 W/m2
14:59 14.7 °C 5.5 °C 1032.7 hPa ruhig     54% 0.0 mm 346.83 W/m2
15:04 14.7 °C 5.8 °C 1033.1 hPa ruhig     55% 0.0 mm 329.01 W/m2
15:09 14.8 °C 5.6 °C 1032.7 hPa ruhig     54% 0.0 mm 221.31 W/m2
15:14 14.8 °C 5.6 °C 1033.1 hPa ruhig     54% 0.0 mm 218.86 W/m2
15:19 14.9 °C 5.7 °C 1032.7 hPa ruhig     54% 0.0 mm 187.88 W/m2
15:24 15.0 °C 6.3 °C 1032.7 hPa ruhig     56% 0.0 mm 198.65 W/m2
15:29 14.9 °C 6.0 °C 1032.7 hPa ruhig     55% 0.0 mm 246.93 W/m2
15:34 14.8 °C 5.9 °C 1032.7 hPa ruhig     55% 0.0 mm 188.17 W/m2
15:39 14.7 °C 6.0 °C 1032.7 hPa ruhig     56% 0.0 mm 167.26 W/m2
15:44 14.5 °C 6.1 °C 1032.7 hPa ruhig     57% 0.0 mm 129.27 W/m2
15:49 14.3 °C 6.2 °C 1032.7 hPa ruhig     58% 0.0 mm 141.39 W/m2
15:54 14.1 °C 6.0 °C 1032.4 hPa ruhig     58% 0.0 mm 158.12 W/m2
15:59 14.0 °C 5.6 °C 1032.7 hPa ruhig     57% 0.0 mm 109.44 W/m2
16:04 13.8 °C 5.7 °C 1032.1 hPa ruhig     58% 0.0 mm 121.44 W/m2
16:09 13.5 °C 5.7 °C 1032.4 hPa ruhig     59% 0.0 mm 104.15 W/m2
16:14 13.3 °C 5.7 °C 1032.4 hPa ruhig     60% 0.0 mm 99.66 W/m2
16:19 13.2 °C 5.4 °C 1032.4 hPa ruhig     59% 0.0 mm 95.45 W/m2
16:24 13.0 °C 5.2 °C 1032.4 hPa ruhig     59% 0.0 mm 88.47 W/m2
16:29 12.8 °C 5.0 °C 1032.1 hPa ruhig     59% 0.0 mm 94.17 W/m2
16:34 12.6 °C 4.6 °C 1032.4 hPa ruhig     58% 0.0 mm 69.23 W/m2
16:39 12.5 °C 4.5 °C 1032.1 hPa ruhig     58% 0.0 mm 105.35 W/m2
16:44 12.3 °C 6.4 °C 1032.1 hPa ruhig     67% 0.0 mm 47.71 W/m2
16:49 12.1 °C 6.2 °C 1032.1 hPa ruhig     67% 0.0 mm 39.22 W/m2
16:54 11.8 °C 6.7 °C 1032.1 hPa ruhig     71% 0.0 mm 26.58 W/m2
16:59 11.5 °C 6.8 °C 1032.1 hPa ruhig     73% 0.0 mm 30.09 W/m2
17:04 11.0 °C 6.8 °C 1032.1 hPa ruhig     75% 0.0 mm 12.78 W/m2
17:09 10.4 °C 6.6 °C 1032.1 hPa ruhig     77% 0.0 mm 11.66 W/m2
17:14 9.6 °C 6.3 °C 1032.1 hPa ruhig     80% 0.0 mm 9.02 W/m2
17:19 8.9 °C 6.2 °C 1032.1 hPa ruhig     83% 0.0 mm 6.63 W/m2
17:24 8.1 °C 5.7 °C 1032.1 hPa ruhig     85% 0.0 mm 4.66 W/m2
17:29 7.3 °C 5.1 °C 1032.1 hPa ruhig     86% 0.0 mm 2.35 W/m2
17:34 6.6 °C 4.9 °C 1032.1 hPa ruhig     89% 0.0 mm 0.62 W/m2
17:39 6.0 °C 4.8 °C 1032.1 hPa ruhig     92% 0.0 mm 0.00 W/m2
17:44 5.7 °C 4.7 °C 1032.1 hPa ruhig     93% 0.0 mm 0.00 W/m2
17:49 5.3 °C 4.4 °C 1032.4 hPa ruhig     94% 0.0 mm 0.00 W/m2
17:54 5.0 °C 4.4 °C 1032.1 hPa ruhig     96% 0.0 mm 0.00 W/m2
17:59 4.8 °C 4.5 °C 1032.1 hPa ruhig     98% 0.0 mm 0.00 W/m2
18:04 4.5 °C 4.2 °C 1032.4 hPa ruhig     98% 0.0 mm 0.00 W/m2
18:09 4.1 °C 4.0 °C 1032.1 hPa ruhig     99% 0.0 mm 0.00 W/m2
18:14 3.8 °C 3.7 °C 1032.1 hPa ruhig     99% 0.0 mm 0.00 W/m2
18:19 3.7 °C 3.6 °C 1032.1 hPa ruhig     99% 0.0 mm 0.00 W/m2
18:24 3.4 °C 3.3 °C 1032.1 hPa ruhig     99% 0.0 mm 0.00 W/m2
18:29 3.0 °C 2.9 °C 1032.4 hPa ruhig     99% 0.0 mm 0.00 W/m2
18:34 2.6 °C 2.5 °C 1032.1 hPa ruhig     99% 0.0 mm 0.00 W/m2
18:39 2.4 °C 2.3 °C 1032.1 hPa ruhig     99% 0.0 mm 0.00 W/m2
18:44 2.2 °C 2.1 °C 1032.1 hPa ruhig     99% 0.0 mm 0.00 W/m2
18:49 1.8 °C 1.7 °C 1032.1 hPa ruhig     99% 0.0 mm 0.00 W/m2
18:54 1.6 °C 1.5 °C 1032.1 hPa ruhig     99% 0.0 mm 0.00 W/m2
18:59 1.4 °C 1.3 °C 1032.1 hPa ruhig     99% 0.0 mm 0.00 W/m2
19:04 1.1 °C 1.0 °C 1032.1 hPa ruhig     99% 0.0 mm 0.00 W/m2
19:09 1.0 °C 0.9 °C 1032.1 hPa ruhig     99% 0.0 mm 0.00 W/m2
19:14 0.7 °C 0.6 °C 1032.1 hPa ruhig     99% 0.0 mm 0.00 W/m2
19:19 0.5 °C 0.4 °C 1032.1 hPa ruhig     99% 0.0 mm 0.00 W/m2
19:24 0.3 °C 0.2 °C 1032.1 hPa ruhig     99% 0.0 mm 0.00 W/m2
19:29 0.0 °C -0.1 °C 1032.1 hPa ruhig     99% 0.0 mm 0.00 W/m2
19:34 0.0 °C -0.1 °C 1031.7 hPa ruhig     99% 0.0 mm 0.00 W/m2
19:39 -0.2 °C -0.3 °C 1031.7 hPa ruhig     99% 0.0 mm 0.00 W/m2
19:44 -0.5 °C -0.6 °C 1032.1 hPa ruhig     99% 0.0 mm 0.00 W/m2
19:49 -0.7 °C -0.8 °C 1032.1 hPa ruhig     99% 0.0 mm 0.00 W/m2
19:54 -0.8 °C -0.9 °C 1032.1 hPa ruhig     99% 0.0 mm 0.00 W/m2
Neuhaus/WN - Oberpfalz